createdAt,value
2022-09-17T00:00:32.699Z,8.94
2022-09-17T00:03:25.078Z,8.89
2022-09-17T00:06:03.178Z,8.85
2022-09-17T00:08:35.269Z,8.82
2022-09-17T00:11:11.365Z,8.78
2022-09-17T00:13:43.702Z,8.78
2022-09-17T00:16:21.999Z,8.77
2022-09-17T00:18:53.539Z,8.73
2022-09-17T00:21:25.719Z,8.69
2022-09-17T00:23:58.665Z,8.65
2022-09-17T00:26:31.897Z,8.63
2022-09-17T00:29:03.841Z,8.59
2022-09-17T00:31:36.101Z,8.53
2022-09-17T00:34:08.031Z,8.44
2022-09-17T00:36:40.710Z,8.37
2022-09-17T00:39:15.661Z,8.29
2022-09-17T00:41:47.169Z,8.21
2022-09-17T00:44:43.118Z,8.17
2022-09-17T00:47:25.424Z,8.11
2022-09-17T00:50:01.112Z,8.07
2022-09-17T00:52:37.311Z,8.05
2022-09-17T00:55:15.070Z,8.05
2022-09-17T00:57:47.577Z,8.07
2022-09-17T01:00:22.721Z,8.10
2022-09-17T01:02:55.035Z,8.13
2022-09-17T01:05:40.132Z,8.11
2022-09-17T01:08:22.357Z,8.09
2022-09-17T01:11:16.142Z,8.08
2022-09-17T01:13:58.837Z,8.04
2022-09-17T01:16:38.932Z,8.00
2022-09-17T01:19:32.108Z,7.99
2022-09-17T01:22:09.622Z,7.94
2022-09-17T01:25:01.425Z,7.91
2022-09-17T01:27:51.066Z,7.84
2022-09-17T01:30:48.899Z,7.71
2022-09-17T01:33:27.669Z,7.73
2022-09-17T01:36:09.500Z,7.77
2022-09-17T01:38:50.058Z,7.81
2022-09-17T01:41:28.694Z,7.83
2022-09-17T01:44:03.719Z,7.86
2022-09-17T01:46:38.300Z,7.88
2022-09-17T01:49:11.727Z,7.88
2022-09-17T01:51:47.204Z,7.90
2022-09-17T01:54:24.523Z,7.92
2022-09-17T01:57:01.989Z,7.94
2022-09-17T01:59:39.111Z,7.92
2022-09-17T02:02:17.775Z,7.90
2022-09-17T02:04:56.419Z,7.88
2022-09-17T02:07:28.591Z,7.86
2022-09-17T02:10:06.848Z,7.85
2022-09-17T02:12:42.075Z,7.85
2022-09-17T02:15:19.715Z,7.86
2022-09-17T02:17:55.317Z,7.85
2022-09-17T02:20:32.925Z,7.79
2022-09-17T02:23:14.517Z,7.75
2022-09-17T02:25:51.535Z,7.74
2022-09-17T02:28:29.514Z,7.75
2022-09-17T02:31:01.025Z,7.75
2022-09-17T02:33:31.496Z,7.74
2022-09-17T02:36:03.776Z,7.68
2022-09-17T02:38:35.298Z,7.65
2022-09-17T02:41:10.514Z,7.63
2022-09-17T02:43:51.578Z,7.57
2022-09-17T02:46:48.327Z,7.57
2022-09-17T02:49:34.308Z,7.55
2022-09-17T02:52:19.256Z,7.54
2022-09-17T02:55:01.696Z,7.53
2022-09-17T02:57:42.071Z,7.54
2022-09-17T03:00:16.934Z,7.55
2022-09-17T03:02:52.273Z,7.59
2022-09-17T03:05:25.730Z,7.60
2022-09-17T03:08:00.237Z,7.61
2022-09-17T03:10:33.758Z,7.58
2022-09-17T03:13:05.282Z,7.58
2022-09-17T03:15:36.772Z,7.58
2022-09-17T03:18:06.995Z,7.59
2022-09-17T03:20:38.485Z,7.54
2022-09-17T03:23:08.540Z,7.53
2022-09-17T03:25:40.000Z,7.47
2022-09-17T03:28:11.426Z,7.43
2022-09-17T03:30:43.434Z,7.43
2022-09-17T03:33:14.969Z,7.44
2022-09-17T03:35:45.216Z,7.42
2022-09-17T03:38:17.046Z,7.37
2022-09-17T03:40:59.457Z,7.35
2022-09-17T03:43:30.903Z,7.30
2022-09-17T03:46:02.431Z,7.28
2022-09-17T03:48:37.006Z,7.24
2022-09-17T03:51:09.049Z,7.22
2022-09-17T03:53:40.629Z,7.19
2022-09-17T03:56:12.136Z,7.15
2022-09-17T03:58:43.584Z,7.10
2022-09-17T04:01:15.084Z,7.05
2022-09-17T04:03:45.931Z,7.01
2022-09-17T04:06:17.365Z,6.94
2022-09-17T04:08:48.985Z,6.93
2022-09-17T04:11:18.943Z,6.93
2022-09-17T04:13:50.402Z,6.90
2022-09-17T04:16:21.935Z,6.87
2022-09-17T04:18:51.998Z,6.82
2022-09-17T04:21:23.428Z,6.76
2022-09-17T04:23:54.885Z,6.72
2022-09-17T04:26:26.358Z,6.68
2022-09-17T04:28:57.834Z,6.65
2022-09-17T04:31:29.363Z,6.65
2022-09-17T04:33:59.466Z,6.67
2022-09-17T04:36:32.004Z,6.67
2022-09-17T04:39:03.453Z,6.71
2022-09-17T04:41:34.970Z,6.76
2022-09-17T04:44:07.058Z,6.88
2022-09-17T04:46:38.800Z,7.16
2022-09-17T04:49:11.301Z,7.57
2022-09-17T04:51:42.750Z,7.97
2022-09-17T04:54:14.653Z,8.38
2022-09-17T04:56:46.103Z,8.44
2022-09-17T04:59:17.556Z,8.38
2022-09-17T05:01:49.487Z,8.34
2022-09-17T05:04:21.028Z,8.22
2022-09-17T05:06:52.696Z,8.12
2022-09-17T05:09:22.693Z,8.08
2022-09-17T05:11:54.145Z,8.13
2022-09-17T05:14:25.569Z,8.74
2022-09-17T05:16:57.044Z,9.59
2022-09-17T05:19:28.571Z,10.56
2022-09-17T05:21:58.543Z,11.50
2022-09-17T05:24:30.175Z,11.90
2022-09-17T05:27:00.235Z,12.29
2022-09-17T05:29:31.717Z,12.56
2022-09-17T05:32:01.696Z,12.64
2022-09-17T05:34:33.167Z,12.51
2022-09-17T05:37:03.149Z,12.45
2022-09-17T05:39:34.593Z,12.32
2022-09-17T05:42:04.687Z,12.35
2022-09-17T05:44:36.154Z,12.44
2022-09-17T05:47:06.427Z,12.46
2022-09-17T05:49:37.933Z,12.50
2022-09-17T05:52:07.930Z,12.73
2022-09-17T05:54:39.359Z,12.95
2022-09-17T05:57:09.330Z,13.31
2022-09-17T05:59:40.771Z,13.38
2022-09-17T06:02:13.321Z,13.58
2022-09-17T06:04:45.736Z,13.82
2022-09-17T06:07:15.701Z,13.95
2022-09-17T06:09:47.146Z,14.04
2022-09-17T06:12:17.110Z,14.25
2022-09-17T06:14:48.607Z,14.16
2022-09-17T06:17:22.188Z,14.23
2022-09-17T06:19:54.149Z,14.19
2022-09-17T06:22:25.918Z,14.32
2022-09-17T06:24:57.477Z,14.61
2022-09-17T06:27:33.764Z,14.70
2022-09-17T06:30:06.305Z,14.77
2022-09-17T06:32:38.026Z,14.76
2022-09-17T06:35:11.513Z,14.78
2022-09-17T06:37:43.100Z,14.60
2022-09-17T06:40:15.585Z,14.53
2022-09-17T06:42:47.323Z,14.51
2022-09-17T06:45:18.990Z,14.48
2022-09-17T06:47:50.961Z,14.35
2022-09-17T06:50:23.540Z,14.13
2022-09-17T06:52:56.089Z,13.98
2022-09-17T06:55:28.276Z,13.82
2022-09-17T06:58:02.473Z,13.64
2022-09-17T07:00:34.009Z,13.59
2022-09-17T07:03:05.550Z,13.60
2022-09-17T07:05:37.224Z,13.58
2022-09-17T07:08:10.872Z,13.55
2022-09-17T07:10:43.372Z,13.47
2022-09-17T07:13:15.020Z,13.44
2022-09-17T07:15:53.611Z,13.44
2022-09-17T07:18:25.775Z,13.33
2022-09-17T07:20:59.862Z,13.31
2022-09-17T07:23:33.653Z,13.36
2022-09-17T07:26:07.755Z,13.47
2022-09-17T07:28:40.998Z,13.60
2022-09-17T07:31:16.404Z,13.66
2022-09-17T07:33:48.491Z,13.65
2022-09-17T07:36:20.086Z,13.71
2022-09-17T07:38:51.626Z,13.79
2022-09-17T07:41:23.087Z,13.84
2022-09-17T07:43:54.105Z,13.95
2022-09-17T07:46:26.033Z,14.02
2022-09-17T07:48:57.756Z,14.14
2022-09-17T07:51:30.412Z,14.21
2022-09-17T07:54:02.311Z,14.22
2022-09-17T07:56:34.675Z,14.17
2022-09-17T07:59:06.574Z,14.15
2022-09-17T08:01:38.429Z,14.12
2022-09-17T08:04:10.013Z,14.14
2022-09-17T08:06:41.143Z,14.12
2022-09-17T08:09:13.473Z,14.02
2022-09-17T08:11:55.521Z,14.06
2022-09-17T08:14:29.981Z,14.11
2022-09-17T08:17:01.857Z,14.23
2022-09-17T08:19:34.581Z,14.36
2022-09-17T08:22:06.257Z,14.51
2022-09-17T08:24:38.343Z,14.59
2022-09-17T08:27:09.872Z,14.64
2022-09-17T08:29:41.558Z,14.63
2022-09-17T08:32:13.264Z,14.70
2022-09-17T08:34:47.097Z,14.72
2022-09-17T08:37:18.964Z,14.81
2022-09-17T08:39:50.704Z,14.80
2022-09-17T08:42:29.101Z,14.72
2022-09-17T08:45:37.558Z,14.57
2022-09-17T08:48:14.490Z,14.38
2022-09-17T08:50:46.094Z,14.27
2022-09-17T08:53:36.570Z,14.25
2022-09-17T08:56:14.659Z,14.21
2022-09-17T08:59:08.450Z,14.15
2022-09-17T09:01:46.491Z,14.09
2022-09-17T09:04:42.789Z,14.09
2022-09-17T09:07:19.490Z,14.14
2022-09-17T09:09:56.080Z,14.18
2022-09-17T09:12:32.847Z,14.23
2022-09-17T09:15:06.854Z,14.25
2022-09-17T09:17:45.229Z,14.31
2022-09-17T09:20:19.421Z,14.31
2022-09-17T09:22:52.571Z,14.26
2022-09-17T09:25:28.552Z,14.26
2022-09-17T09:28:07.816Z,14.28
2022-09-17T09:30:53.595Z,14.30
2022-09-17T09:33:31.964Z,14.27
2022-09-17T09:36:06.628Z,14.22
2022-09-17T09:38:41.850Z,14.19
2022-09-17T09:41:16.053Z,14.18
2022-09-17T09:44:05.611Z,14.19
2022-09-17T09:47:04.344Z,14.17
2022-09-17T09:49:54.334Z,14.20
2022-09-17T09:52:42.432Z,14.31
2022-09-17T09:55:41.536Z,14.44
2022-09-17T09:58:25.356Z,14.58
2022-09-17T10:00:56.817Z,14.67
2022-09-17T10:03:28.305Z,14.68
2022-09-17T10:06:02.434Z,14.57
2022-09-17T10:08:39.454Z,14.49
2022-09-17T10:11:25.649Z,14.37
2022-09-17T10:14:20.956Z,14.26
2022-09-17T10:17:11.775Z,14.18
2022-09-17T10:19:43.709Z,14.19
2022-09-17T10:22:28.418Z,14.19
2022-09-17T10:25:01.623Z,14.19
2022-09-17T10:27:33.879Z,14.08
2022-09-17T10:30:17.771Z,14.01
2022-09-17T10:33:16.191Z,14.00
2022-09-17T10:35:59.900Z,14.02
2022-09-17T10:38:35.304Z,14.09
2022-09-17T10:41:15.351Z,14.14
2022-09-17T10:43:47.322Z,14.21
2022-09-17T10:46:27.627Z,14.19
2022-09-17T10:49:12.931Z,14.18
2022-09-17T10:51:45.175Z,14.19
2022-09-17T10:54:32.938Z,14.22
2022-09-17T10:57:06.405Z,14.21
2022-09-17T11:00:10.163Z,14.18
2022-09-17T11:03:17.048Z,14.24
2022-09-17T11:06:12.268Z,14.31
2022-09-17T11:08:58.308Z,14.34
2022-09-17T11:11:41.799Z,14.39
2022-09-17T11:14:23.970Z,14.49
2022-09-17T11:17:05.731Z,14.55
2022-09-17T11:19:46.863Z,14.56
2022-09-17T11:22:24.798Z,14.65
2022-09-17T11:25:09.001Z,14.76
2022-09-17T11:27:54.331Z,14.81
2022-09-17T11:30:32.005Z,14.86
2022-09-17T11:33:18.640Z,14.88
2022-09-17T11:35:54.701Z,14.91
2022-09-17T11:38:29.378Z,14.86
2022-09-17T11:41:07.537Z,14.79
2022-09-17T11:43:42.614Z,14.64
2022-09-17T11:46:19.851Z,14.52
2022-09-17T11:48:59.179Z,14.45
2022-09-17T11:51:36.393Z,14.41
2022-09-17T11:54:27.198Z,14.39
2022-09-17T11:57:09.625Z,14.31
2022-09-17T11:59:47.520Z,14.25
2022-09-17T12:02:27.466Z,14.24
2022-09-17T12:05:02.658Z,14.25
2022-09-17T12:07:42.048Z,14.29
2022-09-17T12:10:31.007Z,14.35
2022-09-17T12:13:15.069Z,14.37
2022-09-17T12:15:53.368Z,14.33
2022-09-17T12:18:37.701Z,14.26
2022-09-17T12:21:14.838Z,14.22
2022-09-17T12:23:50.498Z,14.21
2022-09-17T12:26:34.346Z,14.25
2022-09-17T12:29:22.097Z,14.30
2022-09-17T12:32:02.107Z,14.32
2022-09-17T12:34:46.843Z,14.37
2022-09-17T12:37:25.664Z,14.41
2022-09-17T12:40:16.868Z,14.45
2022-09-17T12:43:12.140Z,14.50
2022-09-17T12:45:57.887Z,14.56
2022-09-17T12:49:08.308Z,14.61
2022-09-17T12:51:58.281Z,14.65
2022-09-17T12:54:45.457Z,14.65
2022-09-17T12:57:30.471Z,14.62
2022-09-17T13:00:08.203Z,14.60
2022-09-17T13:02:45.576Z,14.57
2022-09-17T13:05:47.584Z,14.52
2022-09-17T13:08:54.633Z,14.50
2022-09-17T13:11:42.473Z,14.49
2022-09-17T13:14:24.877Z,14.51
2022-09-17T13:17:04.011Z,14.54
2022-09-17T13:19:45.137Z,14.52
2022-09-17T13:22:21.117Z,14.48
2022-09-17T13:25:05.654Z,14.47
2022-09-17T13:27:38.657Z,14.46
2022-09-17T13:30:13.230Z,14.47
2022-09-17T13:32:52.812Z,14.53
2022-09-17T13:35:54.461Z,14.58
2022-09-17T13:38:26.177Z,14.61
2022-09-17T13:41:24.163Z,14.59
2022-09-17T13:43:56.257Z,14.57
2022-09-17T13:46:29.434Z,14.55
2022-09-17T13:49:03.565Z,14.59
2022-09-17T13:51:52.938Z,14.66
2022-09-17T13:54:39.693Z,14.72
2022-09-17T13:57:16.601Z,14.76
2022-09-17T13:59:59.966Z,14.74
2022-09-17T14:02:38.485Z,14.73
2022-09-17T14:05:38.802Z,14.73
2022-09-17T14:08:57.666Z,14.72
2022-09-17T14:11:41.789Z,14.66
2022-09-17T14:14:47.553Z,14.64
2022-09-17T14:17:51.977Z,14.72
2022-09-17T14:20:26.331Z,14.81
2022-09-17T14:23:02.613Z,14.83
2022-09-17T14:25:47.321Z,14.85
2022-09-17T14:28:29.806Z,14.88
2022-09-17T14:31:03.509Z,14.92
2022-09-17T14:33:36.525Z,14.92
2022-09-17T14:36:19.090Z,14.90
2022-09-17T14:38:54.158Z,14.84
2022-09-17T14:41:30.857Z,14.79
2022-09-17T14:44:07.420Z,14.78
2022-09-17T14:46:45.198Z,14.79
2022-09-17T14:49:23.716Z,14.75
2022-09-17T14:51:59.703Z,14.73
2022-09-17T14:54:36.103Z,14.72
2022-09-17T14:57:22.000Z,14.72
2022-09-17T14:59:57.061Z,14.66
2022-09-17T15:02:36.880Z,14.65
2022-09-17T15:05:26.638Z,14.68
2022-09-17T15:08:21.144Z,14.68
2022-09-17T15:10:56.163Z,14.72
2022-09-17T15:13:30.241Z,14.72
2022-09-17T15:16:07.629Z,14.71
2022-09-17T15:18:44.774Z,14.71
2022-09-17T15:21:31.836Z,14.71
2022-09-17T15:24:14.653Z,14.71
2022-09-17T15:26:49.957Z,14.71
2022-09-17T15:29:24.370Z,14.69
2022-09-17T15:31:55.887Z,14.66
2022-09-17T15:34:27.740Z,14.62
2022-09-17T15:37:17.427Z,14.59
2022-09-17T15:39:52.993Z,14.58
2022-09-17T15:42:27.436Z,14.56
2022-09-17T15:45:18.868Z,14.54
2022-09-17T15:47:58.232Z,14.46
2022-09-17T15:50:31.838Z,14.42
2022-09-17T15:53:23.237Z,14.43
2022-09-17T15:56:11.095Z,14.44
2022-09-17T15:58:56.610Z,14.44
2022-09-17T16:01:55.541Z,14.44
2022-09-17T16:04:29.729Z,14.44
2022-09-17T16:07:27.467Z,14.41
2022-09-17T16:09:59.426Z,14.39
2022-09-17T16:12:31.046Z,14.31
2022-09-17T16:15:06.412Z,14.21
2022-09-17T16:17:47.334Z,14.13
2022-09-17T16:20:23.540Z,14.05
2022-09-17T16:22:57.277Z,13.97
2022-09-17T16:25:30.122Z,13.89
2022-09-17T16:28:05.137Z,13.83
2022-09-17T16:30:36.788Z,13.76
2022-09-17T16:33:10.125Z,13.69
2022-09-17T16:35:41.862Z,13.61
2022-09-17T16:38:13.883Z,13.54
2022-09-17T16:40:47.534Z,13.50
2022-09-17T16:43:19.226Z,13.48
2022-09-17T16:46:02.251Z,13.44
2022-09-17T16:48:34.427Z,13.39
2022-09-17T16:51:11.036Z,13.32
2022-09-17T16:53:42.601Z,13.28
2022-09-17T16:56:16.255Z,13.26
2022-09-17T16:58:50.407Z,13.23
2022-09-17T17:01:21.970Z,13.22
2022-09-17T17:03:55.609Z,13.17
2022-09-17T17:06:27.503Z,13.12
2022-09-17T17:09:01.055Z,13.09
2022-09-17T17:11:32.593Z,13.04
2022-09-17T17:14:05.294Z,12.99
2022-09-17T17:16:37.713Z,12.92
2022-09-17T17:19:09.371Z,12.87
2022-09-17T17:21:41.284Z,12.82
2022-09-17T17:24:15.880Z,12.72
2022-09-17T17:26:49.446Z,12.68
2022-09-17T17:29:20.941Z,12.64
2022-09-17T17:31:51.087Z,12.62
2022-09-17T17:34:22.877Z,12.53
2022-09-17T17:36:54.364Z,12.51
2022-09-17T17:39:24.346Z,12.49
2022-09-17T17:41:56.278Z,12.42
2022-09-17T17:44:27.778Z,12.39
2022-09-17T17:46:59.394Z,12.36
2022-09-17T17:49:30.948Z,12.33
2022-09-17T17:52:01.018Z,12.31
2022-09-17T17:54:33.236Z,12.24
2022-09-17T17:57:05.211Z,12.20
2022-09-17T17:59:36.704Z,12.14
2022-09-17T18:02:06.842Z,12.07
2022-09-17T18:04:38.579Z,11.99
2022-09-17T18:07:10.225Z,11.95
2022-09-17T18:09:41.894Z,11.94
2022-09-17T18:12:13.463Z,11.91
2022-09-17T18:14:43.422Z,11.86
2022-09-17T18:17:14.904Z,11.79
2022-09-17T18:19:44.983Z,11.75
2022-09-17T18:22:16.518Z,11.66
2022-09-17T18:24:46.927Z,11.65
2022-09-17T18:27:18.541Z,11.58
2022-09-17T18:30:22.015Z,11.55
2022-09-17T18:32:54.025Z,11.52
2022-09-17T18:35:25.645Z,11.49
2022-09-17T18:37:57.155Z,11.47
2022-09-17T18:40:27.359Z,11.45
2022-09-17T18:42:58.941Z,11.38
2022-09-17T18:45:28.928Z,11.37
2022-09-17T18:48:00.606Z,11.29
2022-09-17T18:50:30.656Z,11.27
2022-09-17T18:53:02.806Z,11.26
2022-09-17T18:55:34.984Z,11.30
2022-09-17T18:58:04.984Z,11.33
2022-09-17T19:00:36.500Z,11.29
2022-09-17T19:03:06.596Z,11.29
2022-09-17T19:05:38.034Z,11.25
2022-09-17T19:08:09.647Z,11.26
2022-09-17T19:10:41.282Z,11.29
2022-09-17T19:13:11.353Z,11.30
2022-09-17T19:15:43.212Z,11.26
2022-09-17T19:18:15.163Z,11.27
2022-09-17T19:20:46.673Z,11.30
2022-09-17T19:23:17.988Z,11.33
2022-09-17T19:25:49.469Z,11.30
2022-09-17T19:28:20.386Z,11.32
2022-09-17T19:30:51.928Z,11.30
2022-09-17T19:33:23.452Z,11.32
2022-09-17T19:35:53.501Z,11.37
2022-09-17T19:38:27.619Z,11.34
2022-09-17T19:41:00.904Z,11.39
2022-09-17T19:43:34.317Z,11.40
2022-09-17T19:46:08.324Z,11.43
2022-09-17T19:48:44.070Z,11.46
2022-09-17T19:51:16.284Z,11.49
2022-09-17T19:53:48.467Z,11.47
2022-09-17T19:56:22.202Z,11.49
2022-09-17T19:58:54.257Z,11.49
2022-09-17T20:01:26.349Z,11.48
2022-09-17T20:03:57.889Z,11.45
2022-09-17T20:06:30.757Z,11.42
2022-09-17T20:09:02.591Z,11.32
2022-09-17T20:11:34.176Z,11.31
2022-09-17T20:14:06.551Z,11.29
2022-09-17T20:16:39.844Z,11.23
2022-09-17T20:19:16.399Z,11.22
2022-09-17T20:21:48.016Z,11.22
2022-09-17T20:24:19.580Z,11.22
2022-09-17T20:26:51.111Z,11.19
2022-09-17T20:29:22.767Z,11.21
2022-09-17T20:31:52.803Z,11.22
2022-09-17T20:34:24.288Z,11.17
2022-09-17T20:37:12.208Z,11.18
2022-09-17T20:39:45.313Z,11.18
2022-09-17T20:42:16.785Z,11.21
2022-09-17T20:44:46.795Z,11.22
2022-09-17T20:47:18.764Z,11.20
2022-09-17T20:49:50.658Z,11.20
2022-09-17T20:52:21.308Z,11.17
2022-09-17T20:54:52.857Z,11.13
2022-09-17T20:57:22.849Z,11.11
2022-09-17T20:59:57.458Z,11.07
2022-09-17T21:02:29.153Z,11.10
2022-09-17T21:05:00.613Z,11.15
2022-09-17T21:07:33.143Z,11.16
2022-09-17T21:10:05.386Z,11.17
2022-09-17T21:12:36.857Z,11.14
2022-09-17T21:15:11.641Z,11.14
2022-09-17T21:17:45.348Z,11.15
2022-09-17T21:20:17.289Z,11.16
2022-09-17T21:22:48.740Z,11.16
2022-09-17T21:25:18.721Z,11.17
2022-09-17T21:27:50.193Z,11.09
2022-09-17T21:30:20.264Z,11.05
2022-09-17T21:32:55.498Z,10.97
2022-09-17T21:35:30.269Z,10.97
2022-09-17T21:38:01.691Z,10.98
2022-09-17T21:40:33.225Z,11.00
2022-09-17T21:43:03.288Z,11.01
2022-09-17T21:45:34.708Z,10.97
2022-09-17T21:48:06.331Z,10.98
2022-09-17T21:50:37.860Z,10.97
2022-09-17T21:53:07.872Z,10.95
2022-09-17T21:55:39.354Z,10.89
2022-09-17T21:58:09.813Z,10.90
2022-09-17T22:00:42.904Z,10.84
2022-09-17T22:03:14.429Z,10.85
2022-09-17T22:05:44.437Z,10.86
2022-09-17T22:08:15.880Z,10.81
2022-09-17T22:10:47.323Z,10.83
2022-09-17T22:13:17.327Z,10.85
2022-09-17T22:15:58.408Z,10.82
2022-09-17T22:18:30.302Z,10.82
2022-09-17T22:21:11.834Z,10.84
2022-09-17T22:23:43.854Z,10.86
2022-09-17T22:26:15.941Z,10.85
2022-09-17T22:28:47.593Z,10.86
2022-09-17T22:31:20.391Z,10.86
2022-09-17T22:33:54.551Z,10.81
2022-09-17T22:36:25.725Z,10.81
2022-09-17T22:38:59.184Z,10.75
2022-09-17T22:41:32.389Z,10.76
2022-09-17T22:44:05.649Z,10.77
2022-09-17T22:46:39.320Z,10.79
2022-09-17T22:49:12.164Z,10.79
2022-09-17T22:51:44.916Z,10.79
2022-09-17T22:54:18.862Z,10.81
2022-09-17T22:56:50.776Z,10.82
2022-09-17T22:59:22.310Z,10.83
2022-09-17T23:01:52.322Z,10.81
2022-09-17T23:04:23.756Z,10.74
2022-09-17T23:06:55.215Z,10.74
2022-09-17T23:09:25.224Z,10.75
2022-09-17T23:11:56.672Z,10.71
2022-09-17T23:14:28.201Z,10.72
2022-09-17T23:16:58.181Z,10.73
2022-09-17T23:19:29.951Z,10.66
2022-09-17T23:22:01.462Z,10.64
2022-09-17T23:24:34.280Z,10.67
2022-09-17T23:27:05.874Z,10.64
2022-09-17T23:29:37.583Z,10.67
2022-09-17T23:32:07.794Z,10.71
2022-09-17T23:34:42.384Z,10.67
2022-09-17T23:37:13.806Z,10.66
2022-09-17T23:39:45.243Z,10.65
2022-09-17T23:42:17.118Z,10.68
2022-09-17T23:44:48.626Z,10.68
2022-09-17T23:47:20.106Z,10.68
2022-09-17T23:49:50.064Z,10.68
2022-09-17T23:52:21.733Z,10.60
2022-09-17T23:54:57.728Z,10.57
2022-09-17T23:57:30.446Z,10.56
